Time;durP1;ratioP1;P1;durP2;ratioP2;P2;SDS_P1;SDS_P2;PMS_P1;PMS_P2;Temp;Humidity;BMP_temperature;BMP_pressure;BME280_temperature;BME280_humidity;BME280_pressure;Samples;Min_cycle;Max_cycle;Signal;HPM_P1;HPM_P2
2023/03/10 00:01:27;;;;;;;8.45;2.50;;;;;;;;;;4987195;28;20535;-69
2023/03/10 00:03:54;;;;;;;6.78;2.75;;;;;;;;;;4982117;28;20532;-69
2023/03/10 00:06:22;;;;;;;5.15;2.38;;;;;;;;;;4986752;28;20061;-70
2023/03/10 00:08:48;;;;;;;6.45;2.30;;;;;;;;;;4987819;28;20053;-68
2023/03/10 00:11:14;;;;;;;5.40;2.15;;;;;;;;;;4983868;28;20042;-67
2023/03/10 00:13:40;;;;;;;5.68;2.22;;;;;;;;;;4981300;28;20050;-69
2023/03/10 00:16:06;;;;;;;7.90;2.15;;;;;;;;;;4984270;28;20493;-71
2023/03/10 00:18:32;;;;;;;4.13;2.47;;;;;;;;;;4984632;28;20038;-71
2023/03/10 00:20:57;;;;;;;4.60;2.45;;;;;;;;;;4981219;28;20046;-71
2023/03/10 00:23:24;;;;;;;3.88;2.28;;;;;;;;;;4983401;28;20572;-71
2023/03/10 00:25:57;;;;;;;4.13;2.28;;;;;;;;;;4981898;28;20551;-70
2023/03/10 00:28:24;;;;;;;6.07;2.40;;;;;;;;;;4983443;28;20054;-70
2023/03/10 00:31:01;;;;;;;3.55;2.65;;;;;;;;;;4986069;28;20057;-70
2023/03/10 00:33:33;;;;;;;6.45;2.95;;;;;;;;;;4966220;28;20253;-70
2023/03/10 00:36:10;;;;;;;6.10;2.90;;;;;;;;;;4971634;28;20050;-70
2023/03/10 00:38:36;;;;;;;6.82;3.10;;;;;;;;;;4983383;28;20064;-69
2023/03/10 00:41:07;;;;;;;4.43;2.60;;;;;;;;;;4971082;28;20065;-69
2023/03/10 00:43:34;;;;;;;3.60;2.40;;;;;;;;;;4980981;28;20046;-68
2023/03/10 00:45:59;;;;;;;4.40;2.50;;;;;;;;;;4995172;28;20054;-69
2023/03/10 00:48:25;;;;;;;5.80;2.90;;;;;;;;;;4984464;28;20046;-70
2023/03/10 00:50:51;;;;;;;4.53;2.60;;;;;;;;;;4980861;28;20141;-70
2023/03/10 00:53:17;;;;;;;6.68;2.70;;;;;;;;;;4963007;28;20153;-68
2023/03/10 00:55:43;;;;;;;4.28;2.45;;;;;;;;;;4979976;28;20054;-68
2023/03/10 00:58:08;;;;;;;5.38;2.08;;;;;;;;;;4962880;28;20054;-69
2023/03/10 01:00:34;;;;;;;4.30;2.42;;;;;;;;;;4965776;28;20068;-69
2023/03/10 01:03:01;;;;;;;6.28;2.38;;;;;;;;;;4981069;28;20060;-68
2023/03/10 01:05:27;;;;;;;11.23;2.00;;;;;;;;;;4963018;28;20050;-69
2023/03/10 01:07:53;;;;;;;6.97;2.30;;;;;;;;;;4985056;28;20046;-69
2023/03/10 01:10:19;;;;;;;6.18;2.00;;;;;;;;;;4981487;28;20054;-69
2023/03/10 01:12:44;;;;;;;3.58;2.17;;;;;;;;;;4962629;28;20046;-69
2023/03/10 01:15:11;;;;;;;6.80;1.98;;;;;;;;;;4987667;28;20049;-69
2023/03/10 01:17:36;;;;;;;3.85;2.25;;;;;;;;;;4985133;28;20046;-67
2023/03/10 01:20:05;;;;;;;3.97;2.00;;;;;;;;;;4965548;28;20103;-67
2023/03/10 01:22:30;;;;;;;5.43;1.90;;;;;;;;;;4981842;28;20057;-68
2023/03/10 01:24:56;;;;;;;4.15;1.77;;;;;;;;;;4965968;28;20054;-68
2023/03/10 01:27:21;;;;;;;7.43;2.13;;;;;;;;;;4987642;28;20046;-69
2023/03/10 01:29:47;;;;;;;5.55;1.98;;;;;;;;;;4986607;28;20052;-69
2023/03/10 01:32:12;;;;;;;2.05;1.60;;;;;;;;;;4964383;28;20513;-68
2023/03/10 01:34:38;;;;;;;3.88;1.90;;;;;;;;;;4969838;28;20053;-69
2023/03/10 01:37:03;;;;;;;2.75;1.80;;;;;;;;;;4970211;28;20054;-68
2023/03/10 01:39:28;;;;;;;1.85;1.67;;;;;;;;;;4963253;28;20057;-68
2023/03/10 01:41:54;;;;;;;5.40;2.00;;;;;;;;;;4962456;28;20081;-68
2023/03/10 01:44:20;;;;;;;5.68;1.92;;;;;;;;;;4961617;28;20050;-72
2023/03/10 01:46:51;;;;;;;2.47;1.80;;;;;;;;;;4965606;28;20088;-68
2023/03/10 01:49:25;;;;;;;2.38;2.00;;;;;;;;;;4963102;28;20171;-67
2023/03/10 01:52:00;;;;;;;4.60;1.92;;;;;;;;;;4963637;28;20472;-67
2023/03/10 01:54:52;;;;;;;4.65;1.75;;;;;;;;;;4972047;28;20046;-68
2023/03/10 01:57:23;;;;;;;3.30;1.90;;;;;;;;;;4975558;28;20108;-68
2023/03/10 01:59:50;;;;;;;3.03;2.33;;;;;;;;;;4967741;28;20576;-69
2023/03/10 02:02:17;;;;;;;5.72;1.67;;;;;;;;;;4965333;28;20054;-69
2023/03/10 02:04:47;;;;;;;4.70;2.10;;;;;;;;;;4967860;28;20425;-67
2023/03/10 02:07:17;;;;;;;3.55;2.05;;;;;;;;;;4983803;28;20038;-68
2023/03/10 02:09:45;;;;;;;2.90;1.98;;;;;;;;;;4965946;28;20089;-69
2023/03/10 02:12:12;;;;;;;4.70;2.03;;;;;;;;;;4968409;28;20412;-68
2023/03/10 02:14:38;;;;;;;4.07;2.10;;;;;;;;;;4969529;28;20054;-69
2023/03/10 02:17:07;;;;;;;3.00;1.90;;;;;;;;;;4995868;28;20046;-68
2023/03/10 02:19:44;;;;;;;2.60;1.85;;;;;;;;;;4966760;28;20100;-69
2023/03/10 02:22:11;;;;;;;3.08;1.80;;;;;;;;;;4985298;28;20411;-69
2023/03/10 02:25:09;;;;;;;3.03;1.63;;;;;;;;;;4967536;28;20105;-68
2023/03/10 02:27:38;;;;;;;2.58;1.40;;;;;;;;;;4990159;28;20140;-69
2023/03/10 02:30:09;;;;;;;1.75;1.40;;;;;;;;;;4983197;28;20950;-68
2023/03/10 02:32:42;;;;;;;2.00;1.50;;;;;;;;;;4965377;28;20077;-69
2023/03/10 02:35:08;;;;;;;3.55;1.92;;;;;;;;;;4968300;28;20136;-69
2023/03/10 02:37:39;;;;;;;2.45;1.50;;;;;;;;;;4988884;28;20050;-69
2023/03/10 02:40:32;;;;;;;3.38;1.75;;;;;;;;;;4973633;28;20097;-69
2023/03/10 02:43:03;;;;;;;3.03;1.70;;;;;;;;;;4950235;28;20050;-70
2023/03/10 02:45:32;;;;;;;3.70;1.98;;;;;;;;;;4964126;28;20492;-69
2023/03/10 02:47:58;;;;;;;3.90;1.80;;;;;;;;;;4976143;28;20069;-69
2023/03/10 02:50:27;;;;;;;3.58;1.70;;;;;;;;;;4964942;28;20077;-69
2023/03/10 02:53:09;;;;;;;2.13;1.70;;;;;;;;;;4968547;28;20050;-69
2023/03/10 02:55:35;;;;;;;2.97;1.73;;;;;;;;;;4969486;28;20092;-69
2023/03/10 02:58:02;;;;;;;2.20;1.65;;;;;;;;;;4969578;28;20050;-70
2023/03/10 03:00:29;;;;;;;5.05;1.58;;;;;;;;;;4971415;28;20882;-70
2023/03/10 03:02:54;;;;;;;5.72;1.85;;;;;;;;;;4971661;28;20236;-69
2023/03/10 03:05:20;;;;;;;2.35;2.10;;;;;;;;;;4964138;28;20796;-70
2023/03/10 03:07:47;;;;;;;2.38;1.88;;;;;;;;;;4965194;28;20113;-69
2023/03/10 03:10:12;;;;;;;4.82;2.58;;;;;;;;;;4964424;28;20481;-69
2023/03/10 03:12:38;;;;;;;4.40;2.00;;;;;;;;;;4983425;28;20132;-69
2023/03/10 03:15:04;;;;;;;2.67;2.03;;;;;;;;;;4965371;28;20058;-69
2023/03/10 03:17:29;;;;;;;2.55;1.80;;;;;;;;;;4967488;28;20045;-69
2023/03/10 03:19:55;;;;;;;4.57;1.95;;;;;;;;;;4986253;28;20049;-69
2023/03/10 03:22:21;;;;;;;2.40;1.70;;;;;;;;;;4974509;28;20042;-69
2023/03/10 03:24:47;;;;;;;3.00;1.63;;;;;;;;;;4966828;28;20053;-69
2023/03/10 03:27:13;;;;;;;5.40;1.98;;;;;;;;;;4967338;28;20042;-69
2023/03/10 03:29:39;;;;;;;3.85;1.67;;;;;;;;;;4965028;28;20057;-68
2023/03/10 03:32:05;;;;;;;2.45;1.70;;;;;;;;;;4967775;28;20488;-69
2023/03/10 03:34:32;;;;;;;11.02;1.80;;;;;;;;;;4963108;28;20587;-68
2023/03/10 03:37:01;;;;;;;4.25;2.28;;;;;;;;;;4964412;28;20762;-69
2023/03/10 03:39:32;;;;;;;2.10;1.90;;;;;;;;;;4964343;28;20046;-67
2023/03/10 03:42:00;;;;;;;1.95;1.48;;;;;;;;;;4963694;28;20547;-67
2023/03/10 03:44:31;;;;;;;5.40;1.77;;;;;;;;;;4967945;28;20050;-68
2023/03/10 03:46:56;;;;;;;3.38;1.92;;;;;;;;;;4965564;28;20046;-69
2023/03/10 03:49:23;;;;;;;1.80;1.55;;;;;;;;;;4981762;28;20065;-68
2023/03/10 03:51:48;;;;;;;3.65;1.90;;;;;;;;;;4981774;28;20054;-69
2023/03/10 03:54:14;;;;;;;2.60;1.80;;;;;;;;;;4963522;28;20045;-68
2023/03/10 03:56:39;;;;;;;4.65;1.92;;;;;;;;;;4968311;28;20050;-69
2023/03/10 03:59:06;;;;;;;2.15;1.73;;;;;;;;;;4987101;28;20501;-68
2023/03/10 04:01:32;;;;;;;3.03;2.00;;;;;;;;;;4964076;28;20073;-68
2023/03/10 04:03:59;;;;;;;1.80;1.42;;;;;;;;;;4963059;28;20085;-69
2023/03/10 04:06:24;;;;;;;3.10;1.67;;;;;;;;;;4962972;28;20535;-67
2023/03/10 04:08:51;;;;;;;2.53;2.00;;;;;;;;;;4963941;28;20046;-69
2023/03/10 04:11:17;;;;;;;3.20;1.65;;;;;;;;;;4963716;28;20038;-69
2023/03/10 04:13:45;;;;;;;3.05;1.73;;;;;;;;;;4963509;28;20046;-68
2023/03/10 04:16:11;;;;;;;2.42;1.80;;;;;;;;;;4962757;28;20057;-68
2023/03/10 04:18:39;;;;;;;3.75;1.70;;;;;;;;;;4965237;28;20046;-67
2023/03/10 04:21:06;;;;;;;1.55;1.45;;;;;;;;;;4964309;28;20046;-67
2023/03/10 04:23:32;;;;;;;2.75;1.85;;;;;;;;;;4963464;28;20058;-67
2023/03/10 04:25:58;;;;;;;3.90;2.20;;;;;;;;;;4965907;28;20144;-68
2023/03/10 04:28:24;;;;;;;2.42;1.90;;;;;;;;;;4968168;28;20042;-67
2023/03/10 04:30:50;;;;;;;3.22;2.00;;;;;;;;;;4986979;28;20048;-67
2023/03/10 04:33:18;;;;;;;5.95;2.03;;;;;;;;;;4963591;28;20492;-67
2023/03/10 04:35:50;;;;;;;2.28;1.40;;;;;;;;;;4962654;28;20053;-67
2023/03/10 04:38:16;;;;;;;5.25;1.73;;;;;;;;;;4984058;28;20430;-67
2023/03/10 04:40:42;;;;;;;2.20;1.73;;;;;;;;;;4971192;28;20509;-68
2023/03/10 04:43:08;;;;;;;3.00;1.67;;;;;;;;;;4966115;28;20053;-68
2023/03/10 04:45:34;;;;;;;3.28;1.70;;;;;;;;;;4961668;28;20412;-68
2023/03/10 04:47:59;;;;;;;3.83;1.50;;;;;;;;;;4979352;28;20038;-67
2023/03/10 04:50:25;;;;;;;2.25;1.42;;;;;;;;;;4963492;28;20042;-69
2023/03/10 04:52:52;;;;;;;3.22;1.60;;;;;;;;;;4962709;28;21049;-69
2023/03/10 04:55:22;;;;;;;1.80;1.50;;;;;;;;;;4962731;28;20123;-69
2023/03/10 04:57:48;;;;;;;2.08;1.33;;;;;;;;;;4967117;28;20070;-69
2023/03/10 05:00:14;;;;;;;0.75;0.73;;;;;;;;;;4986892;28;20131;-69
2023/03/10 05:02:40;;;;;;;2.92;1.02;;;;;;;;;;4968622;28;20117;-69
2023/03/10 05:05:06;;;;;;;0.82;0.82;;;;;;;;;;4971400;28;20523;-70
2023/03/10 05:07:33;;;;;;;0.85;0.68;;;;;;;;;;4963293;28;20157;-70
2023/03/10 05:09:59;;;;;;;1.15;0.90;;;;;;;;;;4988390;28;20184;-71
2023/03/10 05:12:26;;;;;;;0.82;0.50;;;;;;;;;;4970850;28;20053;-71
2023/03/10 05:14:51;;;;;;;2.50;0.77;;;;;;;;;;4987321;28;20043;-70
2023/03/10 05:17:17;;;;;;;2.45;0.98;;;;;;;;;;4961809;28;20046;-72
2023/03/10 05:19:43;;;;;;;0.90;0.77;;;;;;;;;;4967350;28;20050;-70
2023/03/10 05:22:11;;;;;;;0.88;0.65;;;;;;;;;;4968755;28;20049;-71
2023/03/10 05:24:37;;;;;;;0.77;0.77;;;;;;;;;;4966619;28;20050;-72
2023/03/10 05:27:03;;;;;;;2.72;1.02;;;;;;;;;;4974608;28;20480;-72
2023/03/10 05:29:29;;;;;;;2.67;0.98;;;;;;;;;;4992477;28;20469;-71
2023/03/10 05:32:01;;;;;;;1.02;0.80;;;;;;;;;;4967263;28;20039;-72
2023/03/10 05:34:33;;;;;;;1.60;0.90;;;;;;;;;;4991447;28;20053;-69
2023/03/10 05:37:01;;;;;;;1.08;0.52;;;;;;;;;;4974537;28;20133;-70
2023/03/10 05:39:27;;;;;;;0.73;0.63;;;;;;;;;;4971557;28;20393;-70
2023/03/10 05:41:55;;;;;;;4.50;0.93;;;;;;;;;;4969436;28;20046;-69
2023/03/10 05:44:23;;;;;;;1.20;0.60;;;;;;;;;;4963465;28;20062;-68
2023/03/10 05:46:49;;;;;;;1.00;0.63;;;;;;;;;;4969087;28;20488;-69
2023/03/10 05:49:15;;;;;;;1.88;0.70;;;;;;;;;;4971274;28;21038;-71
2023/03/10 05:51:40;;;;;;;2.72;1.05;;;;;;;;;;4974248;28;20042;-69
2023/03/10 05:54:06;;;;;;;2.25;0.80;;;;;;;;;;4966471;28;20057;-70
2023/03/10 05:56:32;;;;;;;1.40;0.90;;;;;;;;;;4969240;28;20648;-69
2023/03/10 05:59:00;;;;;;;2.13;0.90;;;;;;;;;;4978834;28;20038;-70
2023/03/10 06:01:29;;;;;;;1.67;0.82;;;;;;;;;;4959850;28;20039;-72
2023/03/10 06:03:55;;;;;;;0.68;0.60;;;;;;;;;;4990273;28;20063;-71
2023/03/10 06:06:20;;;;;;;2.53;0.80;;;;;;;;;;4991039;28;20061;-71
2023/03/10 06:08:46;;;;;;;0.95;0.60;;;;;;;;;;4993254;28;20153;-70
2023/03/10 06:11:11;;;;;;;3.13;1.10;;;;;;;;;;4990882;28;20050;-71
2023/03/10 06:13:37;;;;;;;1.13;0.60;;;;;;;;;;4991054;28;20038;-70
2023/03/10 06:16:04;;;;;;;0.85;0.68;;;;;;;;;;4987080;28;20046;-70
2023/03/10 06:18:30;;;;;;;1.00;0.90;;;;;;;;;;4989696;28;20057;-71
2023/03/10 06:20:56;;;;;;;3.70;1.23;;;;;;;;;;4981611;28;20054;-71
2023/03/10 06:23:23;;;;;;;1.92;1.05;;;;;;;;;;4983652;28;20061;-71
2023/03/10 06:26:00;;;;;;;1.23;0.70;;;;;;;;;;4986673;28;20904;-70
2023/03/10 06:28:31;;;;;;;1.65;1.00;;;;;;;;;;4985195;28;20054;-71
2023/03/10 06:30:58;;;;;;;2.53;1.27;;;;;;;;;;4993805;28;20057;-70
2023/03/10 06:33:24;;;;;;;3.08;1.20;;;;;;;;;;4986405;28;20160;-71
2023/03/10 06:35:50;;;;;;;2.53;1.20;;;;;;;;;;4993613;28;20076;-70
2023/03/10 06:38:15;;;;;;;4.47;1.10;;;;;;;;;;4989809;28;20456;-71
2023/03/10 06:40:41;;;;;;;1.77;1.08;;;;;;;;;;4990293;28;20387;-72
2023/03/10 06:43:06;;;;;;;2.72;1.00;;;;;;;;;;4985313;28;20046;-71
2023/03/10 06:45:31;;;;;;;2.25;0.80;;;;;;;;;;4995439;28;20124;-72
2023/03/10 06:47:57;;;;;;;2.55;0.95;;;;;;;;;;4988590;28;20099;-71
2023/03/10 06:50:25;;;;;;;2.75;1.05;;;;;;;;;;4963480;28;20081;-72
2023/03/10 06:52:50;;;;;;;0.82;0.73;;;;;;;;;;4981821;28;20122;-70
2023/03/10 06:55:16;;;;;;;1.30;0.80;;;;;;;;;;4982167;28;20385;-71
2023/03/10 06:57:41;;;;;;;1.40;1.00;;;;;;;;;;4982064;28;20061;-71
2023/03/10 07:00:10;;;;;;;6.40;1.20;;;;;;;;;;4986077;28;20117;-73
2023/03/10 07:02:37;;;;;;;3.13;1.00;;;;;;;;;;4980542;28;20096;-70
2023/03/10 07:05:09;;;;;;;2.08;1.10;;;;;;;;;;4981311;28;20053;-70
2023/03/10 07:07:34;;;;;;;3.67;1.10;;;;;;;;;;4982447;28;20497;-71
2023/03/10 07:10:00;;;;;;;1.70;1.20;;;;;;;;;;4987833;28;20046;-72
2023/03/10 07:12:25;;;;;;;2.85;1.00;;;;;;;;;;4986179;28;20148;-71
2023/03/10 07:14:50;;;;;;;4.28;2.20;;;;;;;;;;4981136;28;20046;-69
2023/03/10 07:17:16;;;;;;;10.43;5.28;;;;;;;;;;4991309;28;20133;-73
2023/03/10 07:19:43;;;;;;;2.90;1.20;;;;;;;;;;4985758;28;20057;-72
2023/03/10 07:22:08;;;;;;;2.58;1.10;;;;;;;;;;4985534;28;20680;-72
2023/03/10 07:24:34;;;;;;;3.78;1.20;;;;;;;;;;4988058;28;20096;-72
2023/03/10 07:27:00;;;;;;;3.28;1.58;;;;;;;;;;4963777;28;20130;-71
2023/03/10 07:29:26;;;;;;;3.03;1.65;;;;;;;;;;4982163;28;20050;-70
2023/03/10 07:31:51;;;;;;;3.10;1.27;;;;;;;;;;4985696;28;20109;-72
2023/03/10 07:34:17;;;;;;;4.95;1.30;;;;;;;;;;4987592;28;20054;-71
2023/03/10 07:36:42;;;;;;;2.75;1.25;;;;;;;;;;4980903;28;20058;-70
2023/03/10 07:39:08;;;;;;;3.30;1.27;;;;;;;;;;4990130;28;20070;-71
2023/03/10 07:41:33;;;;;;;6.53;1.25;;;;;;;;;;4988222;28;20540;-71
2023/03/10 07:43:59;;;;;;;2.28;1.23;;;;;;;;;;4984938;28;20048;-71
2023/03/10 07:46:24;;;;;;;2.80;1.20;;;;;;;;;;4987129;28;20077;-72
2023/03/10 07:48:51;;;;;;;3.95;1.40;;;;;;;;;;4966132;28;20504;-72
2023/03/10 07:51:17;;;;;;;1.67;0.98;;;;;;;;;;4992460;28;20928;-73
2023/03/10 07:53:43;;;;;;;2.10;1.30;;;;;;;;;;4990836;28;20484;-73
2023/03/10 07:56:10;;;;;;;3.78;1.20;;;;;;;;;;4991439;28;20053;-72
2023/03/10 07:58:36;;;;;;;4.00;1.20;;;;;;;;;;4988199;28;20042;-72
2023/03/10 08:01:03;;;;;;;2.28;1.25;;;;;;;;;;4985240;28;20046;-72
2023/03/10 08:03:28;;;;;;;1.33;0.90;;;;;;;;;;4992954;28;20046;-73
2023/03/10 08:05:54;;;;;;;7.03;1.30;;;;;;;;;;4995327;28;20054;-72
2023/03/10 08:08:20;;;;;;;2.65;1.30;;;;;;;;;;4989652;28;20525;-71
2023/03/10 08:10:45;;;;;;;2.05;1.15;;;;;;;;;;4997330;28;20165;-72
2023/03/10 08:13:12;;;;;;;2.13;1.55;;;;;;;;;;4990458;28;20046;-72
2023/03/10 08:15:38;;;;;;;2.15;1.30;;;;;;;;;;4991447;28;20050;-70
2023/03/10 08:18:06;;;;;;;6.00;2.08;;;;;;;;;;4981981;28;20050;-73
2023/03/10 08:20:35;;;;;;;1.00;0.85;;;;;;;;;;4988108;28;20038;-72
2023/03/10 08:23:01;;;;;;;3.72;1.30;;;;;;;;;;4984771;28;20049;-72
2023/03/10 08:25:26;;;;;;;5.78;2.08;;;;;;;;;;4980440;28;20065;-72
2023/03/10 08:27:52;;;;;;;3.70;1.83;;;;;;;;;;4984288;28;20112;-70
2023/03/10 08:30:17;;;;;;;3.08;1.52;;;;;;;;;;4994536;28;20061;-72
2023/03/10 08:32:43;;;;;;;4.60;1.65;;;;;;;;;;4987781;28;20045;-70
2023/03/10 08:35:08;;;;;;;2.28;1.35;;;;;;;;;;4980435;28;20089;-73
2023/03/10 08:37:34;;;;;;;5.63;1.80;;;;;;;;;;4987684;28;20850;-74
2023/03/10 08:39:59;;;;;;;4.22;1.45;;;;;;;;;;4985990;28;20232;-74
2023/03/10 08:42:25;;;;;;;4.90;1.60;;;;;;;;;;4984669;28;20072;-74
2023/03/10 08:44:54;;;;;;;4.90;1.30;;;;;;;;;;4993640;28;20046;-72
2023/03/10 08:47:19;;;;;;;2.80;1.50;;;;;;;;;;4988779;28;20046;-70
2023/03/10 08:49:45;;;;;;;3.65;1.52;;;;;;;;;;4981678;28;20069;-72
2023/03/10 08:52:10;;;;;;;4.32;1.85;;;;;;;;;;4983135;28;20125;-70
2023/03/10 08:54:36;;;;;;;2.70;1.60;;;;;;;;;;4985149;28;20057;-71
2023/03/10 08:57:01;;;;;;;6.15;1.60;;;;;;;;;;4980941;28;20412;-72
2023/03/10 08:59:27;;;;;;;3.70;1.92;;;;;;;;;;4980358;28;20038;-72
2023/03/10 09:01:52;;;;;;;3.28;1.63;;;;;;;;;;4992651;28;20104;-72
2023/03/10 09:04:18;;;;;;;2.20;1.27;;;;;;;;;;4983985;28;20953;-72
2023/03/10 09:06:43;;;;;;;2.60;1.40;;;;;;;;;;4984220;28;20046;-71
2023/03/10 09:09:09;;;;;;;2.85;1.73;;;;;;;;;;4984567;28;20042;-70
2023/03/10 09:11:37;;;;;;;3.58;1.42;;;;;;;;;;4985961;28;20042;-71
2023/03/10 09:14:03;;;;;;;5.70;1.67;;;;;;;;;;4985462;28;20050;-72
2023/03/10 09:16:29;;;;;;;2.75;1.48;;;;;;;;;;4989474;28;20053;-71
2023/03/10 09:18:56;;;;;;;5.05;1.65;;;;;;;;;;4984633;28;20054;-71
2023/03/10 09:21:21;;;;;;;4.32;1.40;;;;;;;;;;4983168;28;20052;-70
2023/03/10 09:23:49;;;;;;;1.70;1.05;;;;;;;;;;4983358;28;20050;-70
2023/03/10 09:26:15;;;;;;;3.90;1.42;;;;;;;;;;4984188;28;20132;-72
2023/03/10 09:28:41;;;;;;;3.45;1.27;;;;;;;;;;4986619;28;20528;-69
2023/03/10 09:31:08;;;;;;;3.40;1.48;;;;;;;;;;4993666;28;20061;-72
2023/03/10 09:33:33;;;;;;;2.97;1.60;;;;;;;;;;4983763;28;20061;-71
2023/03/10 09:36:01;;;;;;;1.75;1.25;;;;;;;;;;4984589;28;20050;-71
2023/03/10 09:38:28;;;;;;;6.20;1.63;;;;;;;;;;4984373;28;20046;-71
2023/03/10 09:41:03;;;;;;;3.13;1.40;;;;;;;;;;4992777;28;20050;-70
2023/03/10 09:43:35;;;;;;;4.95;1.52;;;;;;;;;;4985580;28;20050;-70
2023/03/10 09:46:22;;;;;;;2.65;1.50;;;;;;;;;;4985536;28;20086;-72
2023/03/10 09:48:59;;;;;;;2.75;1.30;;;;;;;;;;4987239;28;20078;-71
2023/03/10 09:51:27;;;;;;;2.90;1.58;;;;;;;;;;4984592;28;20100;-71
2023/03/10 09:54:14;;;;;;;2.85;1.50;;;;;;;;;;4984933;28;20115;-72
2023/03/10 09:56:39;;;;;;;3.42;1.52;;;;;;;;;;4993395;28;20891;-72
2023/03/10 09:59:20;;;;;;;2.42;1.30;;;;;;;;;;4986703;28;20056;-73
2023/03/10 10:01:49;;;;;;;3.95;1.40;;;;;;;;;;4987869;28;20046;-70
2023/03/10 10:04:26;;;;;;;1.50;1.15;;;;;;;;;;4980618;28;20057;-72
2023/03/10 10:06:53;;;;;;;3.50;1.58;;;;;;;;;;4980698;28;20046;-72
2023/03/10 10:09:42;;;;;;;3.35;1.35;;;;;;;;;;4982955;28;20065;-70
2023/03/10 10:12:13;;;;;;;3.83;1.23;;;;;;;;;;4984862;28;20112;-73
2023/03/10 10:14:39;;;;;;;;;;;;;;;;;;4980368;28;20054;-72
2023/03/10 10:17:34;;;;;;;3.15;1.30;;;;;;;;;;4984859;28;19997;-73
2023/03/10 10:20:04;;;;;;;7.05;1.30;;;;;;;;;;4981133;28;20057;-73
2023/03/10 10:22:34;;;;;;;5.90;1.10;;;;;;;;;;4982831;28;20078;-72
2023/03/10 10:25:08;;;;;;;1.73;1.50;;;;;;;;;;4981779;28;20104;-71
2023/03/10 10:27:39;;;;;;;2.30;1.23;;;;;;;;;;4983547;28;20497;-72
2023/03/10 10:30:35;;;;;;;4.78;1.70;;;;;;;;;;4982156;28;20821;-71
2023/03/10 10:33:02;;;;;;;2.05;1.70;;;;;;;;;;4950476;28;20416;-71
2023/03/10 10:35:30;;;;;;;2.03;1.58;;;;;;;;;;4981873;28;20436;-71
2023/03/10 10:38:02;;;;;;;7.63;1.95;;;;;;;;;;4983154;28;20042;-71
2023/03/10 10:40:32;;;;;;;4.40;1.48;;;;;;;;;;4987086;28;20065;-69
2023/03/10 10:42:59;;;;;;;1.75;1.42;;;;;;;;;;4985491;28;20058;-71
2023/03/10 10:45:55;;;;;;;3.22;1.70;;;;;;;;;;4984790;28;20588;-71
2023/03/10 10:48:40;;;;;;;11.65;5.35;;;;;;;;;;4980769;28;20046;-71
2023/03/10 10:51:18;;;;;;;1.42;1.15;;;;;;;;;;4986776;28;20046;-71
2023/03/10 10:53:44;;;;;;;1.95;1.35;;;;;;;;;;4982639;28;20042;-70
2023/03/10 10:56:15;;;;;;;3.90;2.45;;;;;;;;;;4982572;28;20046;-70
2023/03/10 10:58:44;;;;;;;2.83;1.65;;;;;;;;;;4981774;28;20050;-71
2023/03/10 11:01:15;;;;;;;4.07;3.30;;;;;;;;;;4989406;28;20053;-67
2023/03/10 11:03:42;;;;;;;0.50;0.50;;;;;;;;;;4994526;28;20050;-67
2023/03/10 11:06:12;;;;;;;0.47;0.30;;;;;;;;;;4987158;28;20054;-67
2023/03/10 11:08:39;;;;;;;0.38;0.38;;;;;;;;;;4988678;28;20050;-67
2023/03/10 11:11:33;;;;;;;0.80;0.40;;;;;;;;;;4983393;28;20104;-67
2023/03/10 11:14:04;;;;;;;1.55;0.45;;;;;;;;;;4984248;28;20280;-68
2023/03/10 11:16:41;;;;;;;2.33;0.35;;;;;;;;;;4987802;28;20082;-69
2023/03/10 11:19:11;;;;;;;0.15;0.15;;;;;;;;;;4982103;28;20134;-68
2023/03/10 11:21:43;;;;;;;0.60;0.30;;;;;;;;;;4981435;28;20049;-68
2023/03/10 11:24:14;;;;;;;0.20;0.20;;;;;;;;;;4988718;28;20080;-69
2023/03/10 11:27:04;;;;;;;0.45;0.30;;;;;;;;;;4992502;28;20189;-68
2023/03/10 11:29:50;;;;;;;3.47;0.22;;;;;;;;;;4989205;28;20088;-69
2023/03/10 11:32:35;;;;;;;0.20;0.20;;;;;;;;;;4987358;28;20424;-69
2023/03/10 11:35:14;;;;;;;0.20;0.20;;;;;;;;;;4977825;28;20064;-68
2023/03/10 11:37:51;;;;;;;1.73;0.47;;;;;;;;;;4989618;28;20056;-68
2023/03/10 11:40:35;;;;;;;0.20;0.20;;;;;;;;;;4980732;28;20038;-67
2023/03/10 11:43:05;;;;;;;0.10;0.10;;;;;;;;;;4980493;28;20060;-68
2023/03/10 11:45:54;;;;;;;3.03;0.35;;;;;;;;;;4986512;28;20639;-68
2023/03/10 11:48:34;;;;;;;0.10;0.10;;;;;;;;;;4967492;28;20429;-67
2023/03/10 11:51:04;;;;;;;2.20;0.47;;;;;;;;;;4959772;28;20072;-67
2023/03/10 11:53:48;;;;;;;0.55;0.25;;;;;;;;;;4981198;28;20068;-68
2023/03/10 11:56:18;;;;;;;0.43;0.30;;;;;;;;;;4979919;28;20178;-67
2023/03/10 11:59:08;;;;;;;0.40;0.40;;;;;;;;;;4980870;28;20092;-66
2023/03/10 12:01:40;;;;;;;0.82;0.28;;;;;;;;;;4964917;28;20050;-68
2023/03/10 12:04:32;;;;;;;0.60;0.40;;;;;;;;;;4981089;28;20478;-68
2023/03/10 12:07:11;;;;;;;0.40;0.40;;;;;;;;;;4939030;28;21066;-67
2023/03/10 12:09:45;;;;;;;0.95;0.40;;;;;;;;;;4981632;28;20055;-68
2023/03/10 12:12:17;;;;;;;0.25;0.25;;;;;;;;;;4979780;28;20065;-67
2023/03/10 12:14:45;;;;;;;0.45;0.45;;;;;;;;;;4984313;28;20925;-67
2023/03/10 12:17:12;;;;;;;0.45;0.45;;;;;;;;;;4988452;28;20457;-66
2023/03/10 12:20:09;;;;;;;2.33;1.23;;;;;;;;;;4985943;28;20389;-67
2023/03/10 12:22:41;;;;;;;2.10;0.57;;;;;;;;;;4987437;28;20046;-67
2023/03/10 12:25:27;;;;;;;1.27;0.57;;;;;;;;;;4979956;28;20050;-66
2023/03/10 12:28:14;;;;;;;0.80;0.70;;;;;;;;;;4981006;28;20042;-67
2023/03/10 12:30:48;;;;;;;1.05;0.52;;;;;;;;;;4988130;28;20050;-68
2023/03/10 12:33:41;;;;;;;0.30;0.30;;;;;;;;;;4981411;28;20065;-66
2023/03/10 12:36:31;;;;;;;0.38;0.25;;;;;;;;;;4980016;28;20278;-69
2023/03/10 12:38:59;;;;;;;0.98;0.30;;;;;;;;;;4978281;28;20160;-69
2023/03/10 12:41:24;;;;;;;2.13;0.30;;;;;;;;;;4984248;28;20084;-69
2023/03/10 12:44:00;;;;;;;0.30;0.20;;;;;;;;;;4981824;28;20050;-68
2023/03/10 12:46:49;;;;;;;2.47;0.38;;;;;;;;;;4979010;28;20493;-69
2023/03/10 12:49:27;;;;;;;0.25;0.20;;;;;;;;;;4965151;28;20046;-68
2023/03/10 12:52:14;;;;;;;0.30;0.30;;;;;;;;;;4977138;28;20084;-69
2023/03/10 12:54:51;;;;;;;2.35;0.40;;;;;;;;;;4983654;28;20673;-68
2023/03/10 12:57:31;;;;;;;0.30;0.30;;;;;;;;;;4983863;28;20050;-68
2023/03/10 12:59:59;;;;;;;0.40;0.30;;;;;;;;;;4991120;28;20045;-69
2023/03/10 13:02:34;;;;;;;1.67;0.43;;;;;;;;;;4984166;28;20049;-68
2023/03/10 13:05:03;;;;;;;0.13;0.13;;;;;;;;;;4981339;28;20054;-68
2023/03/10 13:07:29;;;;;;;0.32;0.32;;;;;;;;;;4988158;28;20054;-68
2023/03/10 13:09:55;;;;;;;0.38;0.28;;;;;;;;;;4985127;28;20061;-68
2023/03/10 13:12:41;;;;;;;0.20;0.20;;;;;;;;;;4980299;28;20077;-70
2023/03/10 13:15:23;;;;;;;0.43;0.22;;;;;;;;;;4982136;28;20837;-69
2023/03/10 13:17:48;;;;;;;0.43;0.43;;;;;;;;;;4977851;28;20424;-68
2023/03/10 13:20:18;;;;;;;0.10;0.10;;;;;;;;;;4961254;28;20046;-68
2023/03/10 13:22:54;;;;;;;0.17;0.17;;;;;;;;;;4981052;28;20053;-68
2023/03/10 13:25:20;;;;;;;0.20;0.20;;;;;;;;;;4987895;28;20078;-67
2023/03/10 13:27:45;;;;;;;1.65;0.40;;;;;;;;;;4983677;28;20476;-68
2023/03/10 13:30:25;;;;;;;0.90;0.30;;;;;;;;;;4980862;28;20061;-68
2023/03/10 13:32:56;;;;;;;0.25;0.20;;;;;;;;;;4978834;28;20501;-68
2023/03/10 13:35:28;;;;;;;0.73;0.30;;;;;;;;;;4978280;28;20654;-68
2023/03/10 13:38:17;;;;;;;0.30;0.30;;;;;;;;;;4976992;28;20820;-68
2023/03/10 13:40:59;;;;;;;0.10;0.10;;;;;;;;;;4977934;28;20057;-69
2023/03/10 13:43:44;;;;;;;0.23;0.20;;;;;;;;;;4985729;28;20648;-69
2023/03/10 13:46:14;;;;;;;0.10;0.10;;;;;;;;;;4980040;28;20289;-68
2023/03/10 13:48:40;;;;;;;0.10;0.10;;;;;;;;;;4975215;28;20711;-69
2023/03/10 13:51:19;;;;;;;0.17;0.17;;;;;;;;;;4997133;28;20050;-68
2023/03/10 13:53:51;;;;;;;0.20;0.20;;;;;;;;;;4997795;28;20053;-68
2023/03/10 13:56:20;;;;;;;0.20;0.20;;;;;;;;;;5002055;28;20060;-68
2023/03/10 13:58:46;;;;;;;0.30;0.20;;;;;;;;;;4996722;28;20053;-68
2023/03/10 14:01:24;;;;;;;0.20;0.20;;;;;;;;;;5003904;28;20539;-68
2023/03/10 14:03:52;;;;;;;0.20;0.20;;;;;;;;;;5004601;28;20069;-67
2023/03/10 14:06:18;;;;;;;0.10;0.10;;;;;;;;;;4997783;28;20176;-68
2023/03/10 14:08:43;;;;;;;1.63;0.10;;;;;;;;;;4993015;28;20117;-68
2023/03/10 14:11:20;;;;;;;6.82;0.17;;;;;;;;;;4982026;28;20140;-67
2023/03/10 14:13:46;;;;;;;0.20;0.20;;;;;;;;;;4989462;28;20054;-66
2023/03/10 14:16:11;;;;;;;0.10;0.10;;;;;;;;;;4988560;28;20053;-67
2023/03/10 14:18:39;;;;;;;0.20;0.20;;;;;;;;;;4992917;28;20041;-67
2023/03/10 14:21:32;;;;;;;1.73;0.20;;;;;;;;;;4967254;28;20050;-69
2023/03/10 14:24:16;;;;;;;0.10;0.10;;;;;;;;;;4985013;28;20583;-68
2023/03/10 14:26:42;;;;;;;0.20;0.20;;;;;;;;;;4986296;28;20058;-67
2023/03/10 14:29:17;;;;;;;0.20;0.20;;;;;;;;;;4983813;28;20054;-68
2023/03/10 14:31:42;;;;;;;0.20;0.20;;;;;;;;;;4987564;28;20057;-68
2023/03/10 14:34:12;;;;;;;0.10;0.10;;;;;;;;;;4986541;28;20141;-67
2023/03/10 14:36:38;;;;;;;0.50;0.20;;;;;;;;;;4988536;28;20072;-68
2023/03/10 14:39:03;;;;;;;0.30;0.30;;;;;;;;;;4992479;28;20050;-68
2023/03/10 14:41:30;;;;;;;0.20;0.20;;;;;;;;;;4991676;28;21264;-67
2023/03/10 14:43:57;;;;;;;0.20;0.20;;;;;;;;;;4987797;28;20175;-67
2023/03/10 14:46:22;;;;;;;0.20;0.20;;;;;;;;;;4989120;28;20042;-69
2023/03/10 14:48:48;;;;;;;5.13;0.52;;;;;;;;;;4988884;28;20507;-68
2023/03/10 14:51:16;;;;;;;2.40;0.35;;;;;;;;;;4987231;28;20078;-68
2023/03/10 14:53:42;;;;;;;0.20;0.20;;;;;;;;;;4991230;28;20039;-68
2023/03/10 14:56:15;;;;;;;1.00;0.98;;;;;;;;;;4987508;28;20054;-68
2023/03/10 14:58:49;;;;;;;0.20;0.20;;;;;;;;;;4987654;28;20488;-68